»·PEaware :: FDX1344 KSAN-KFAT

FDX1344 :: KSAN-KFAT

FLIGHT INFORMATION

Flight Status: Arrived
Operator:
Federal Express
More flights by this operator :: More flights under this callsign
Pilot: James W. (12414)
Aircraft: BOEING 757-200
(B752)
More flights by this aircraft type
Origin: KSAN San Diego Intl-Lindbergh
United States
Destination: KFAT Fresno Yosemite Intl
United States
More flights between these airports :: More routes between these airports
Route: PADRZ2 EHF DCT TTE ALTTA9
File this flight plan on PilotEdge
Remarks:
Altitude:
(Current/Filed)
36,000ft
Speed:
(Current/Filed)
450kts
Departed: 08-Jan-20 05:04 PM
Arrived: 08-Jan-20 06:02 PM
Distance/Time
Traveled:
273nm/0:58
Distance/Time
To Go:
Arrived

Flight Plot

Page will automatically refresh every two minutes.

Flight plan parsing failed; only flown route is shown


Map Options




Map Legend


Flown Route
Filed Route
Departure Airport
Arrival Airport
Navaid (VOR, NDB)
Fix

Horizontal Profiles

Position Reports

Time Latitude Longitude Heading Altitude Ground
Speed
08-Jan-20 16:43 32.736548 -117.185012 355 28ft 0kts
08-Jan-20 16:44 32.736548 -117.185012 355 28ft 0kts
08-Jan-20 16:45 32.736548 -117.185012 355 28ft 0kts
08-Jan-20 16:46 32.736548 -117.185012 355 28ft 0kts
08-Jan-20 16:47 32.736548 -117.185012 355 28ft 0kts
08-Jan-20 16:48 32.736548 -117.185012 355 28ft 0kts
08-Jan-20 16:49 32.736548 -117.185012 355 28ft 0kts
08-Jan-20 16:50 32.736548 -117.185012 355 28ft 0kts
08-Jan-20 16:51 32.736548 -117.185012 355 28ft 0kts
08-Jan-20 16:52 32.736548 -117.185012 355 28ft 0kts
08-Jan-20 16:53 32.736358 -117.184996 355 28ft 2kts
08-Jan-20 16:54 32.735960 -117.185263 113 28ft 0kts
08-Jan-20 16:55 32.735995 -117.185341 116 28ft 0kts
08-Jan-20 16:56 32.735995 -117.185341 116 28ft 0kts
08-Jan-20 16:57 32.735995 -117.185341 116 28ft 0kts
08-Jan-20 16:58 32.735155 -117.184465 146 28ft 12kts
08-Jan-20 16:59 32.732887 -117.182088 106 28ft 18kts
08-Jan-20 17:00 32.731314 -117.176160 112 28ft 18kts
08-Jan-20 17:01 32.731035 -117.175618 135 28ft 0kts
08-Jan-20 17:02 32.730414 -117.176673 285 28ft 12kts
08-Jan-20 17:03 32.737593 -117.206415 286 473ft 175kts
08-Jan-20 17:04 32.764669 -117.258124 305 2799ft 210kts
08-Jan-20 17:05 32.805055 -117.327155 308 5033ft 271kts
08-Jan-20 17:06 32.851792 -117.399322 307 7149ft 279kts
08-Jan-20 17:07 32.899797 -117.473852 307 9263ft 288kts
08-Jan-20 17:08 32.949317 -117.550922 307 11380ft 297kts
08-Jan-20 17:09 33.000535 -117.630831 307 14273ft 309kts
08-Jan-20 17:10 33.061180 -117.724828 312 16750ft 385kts
08-Jan-20 17:11 33.141572 -117.808621 319 18368ft 392kts
08-Jan-20 17:12 33.226061 -117.893321 320 19784ft 401kts
08-Jan-20 17:14 33.313438 -117.978590 320 21157ft 409kts
08-Jan-20 17:15 33.402970 -118.066221 320 22460ft 417kts
08-Jan-20 17:16 33.493397 -118.154977 320 23680ft 424kts
08-Jan-20 17:17 33.588250 -118.241959 333 24822ft 432kts
08-Jan-20 17:18 33.697731 -118.303179 335 25591ft 447kts
08-Jan-20 17:19 33.808327 -118.361943 337 26009ft 467kts
08-Jan-20 17:20 33.928060 -118.422371 337 26962ft 473kts
08-Jan-20 17:21 34.052788 -118.467009 352 27807ft 480kts
08-Jan-20 17:22 34.172861 -118.485913 352 28969ft 477kts
08-Jan-20 17:23 34.304485 -118.506256 352 30189ft 474kts
08-Jan-20 17:24 34.435167 -118.526448 353 31348ft 472kts
08-Jan-20 17:25 34.564403 -118.546472 353 32507ft 469kts
08-Jan-20 17:26 34.692276 -118.566346 353 33694ft 467kts
08-Jan-20 17:27 34.820121 -118.586277 353 34864ft 464kts
08-Jan-20 17:28 34.947557 -118.606208 352 35895ft 462kts
08-Jan-20 17:29 35.055576 -118.661166 321 35480ft 466kts
08-Jan-20 17:30 35.131097 -118.736788 320 34121ft 464kts
08-Jan-20 17:31 35.230302 -118.837395 320 32076ft 446kts
08-Jan-20 17:32 35.324988 -118.933911 320 30067ft 438kts
08-Jan-20 17:33 35.416198 -119.027195 320 28051ft 410kts
08-Jan-20 17:33 35.497961 -119.081637 349 26413ft 401kts
08-Jan-20 17:35 35.620764 -119.072654 7 23849ft 352kts
08-Jan-20 17:36 35.716005 -119.056056 8 21637ft 340kts
08-Jan-20 17:36 35.793070 -119.042306 8 19795ft 331kts
08-Jan-20 17:38 35.897172 -119.024867 357 17224ft 318kts
08-Jan-20 17:38 35.962902 -119.060707 328 15433ft 310kts
08-Jan-20 17:39 36.039448 -119.110150 345 13999ft 301kts
08-Jan-20 17:41 36.132208 -119.146859 341 13981ft 303kts
08-Jan-20 17:41 36.198842 -119.175157 341 13982ft 303kts
08-Jan-20 17:42 36.278617 -119.209227 341 13982ft 303kts
08-Jan-20 17:43 36.359634 -119.243915 341 13982ft 309kts
08-Jan-20 17:44 36.441118 -119.278879 341 13982ft 309kts
08-Jan-20 17:45 36.522651 -119.313946 341 13666ft 314kts
08-Jan-20 17:46 36.592272 -119.376468 321 12087ft 311kts
08-Jan-20 17:47 36.660942 -119.442089 322 10487ft 309kts
08-Jan-20 17:48 36.722536 -119.500826 322 8818ft 253kts
08-Jan-20 17:49 36.775304 -119.551136 322 7130ft 232kts
08-Jan-20 17:50 36.825456 -119.598946 323 5446ft 220kts
08-Jan-20 17:51 36.872787 -119.644061 323 3803ft 208kts
08-Jan-20 17:52 36.918783 -119.687898 322 3807ft 213kts
08-Jan-20 17:53 36.963026 -119.736884 304 3809ft 213kts
08-Jan-20 17:54 36.995105 -119.798564 283 2797ft 209kts
08-Jan-20 17:55 36.965276 -119.851375 217 2806ft 189kts
08-Jan-20 17:56 36.911425 -119.852994 173 1588ft 192kts
08-Jan-20 17:57 36.870001 -119.832969 155 1633ft 144kts
08-Jan-20 17:58 36.834583 -119.813000 155 1361ft 141kts
08-Jan-20 17:59 36.810779 -119.776196 125 1135ft 141kts
08-Jan-20 18:00 36.789206 -119.739013 124 557ft 140kts
08-Jan-20 18:01 36.774172 -119.712837 124 346ft 35kts
08-Jan-20 18:02 36.769681 -119.702851 22 346ft 26kts
08-Jan-20 18:03 36.775730 -119.711864 305 346ft 41kts

Navigation Log

Ident Type
Flight plan parsing failed, navigation log unavailable